Time;durP1;ratioP1;P1;durP2;ratioP2;P2;SDS_P1;SDS_P2;PMS_P1;PMS_P2;Temp;Humidity;BMP_temperature;BMP_pressure;BME280_temperature;BME280_humidity;BME280_pressure;Samples;Min_cycle;Max_cycle;Signal;HPM_P1;HPM_P2
2023/08/07 00:01:54;;;;;;;13.40;4.10;;;14.70;99.90;;;;;;4988998;28;20476;-64
2023/08/07 00:04:19;;;;;;;13.38;4.00;;;14.50;99.90;;;;;;4984905;28;20093;-64
2023/08/07 00:06:45;;;;;;;13.68;3.92;;;;;;;;;;4989987;28;20041;-64
2023/08/07 00:09:11;;;;;;;14.98;4.63;;;14.90;99.90;;;;;;4990051;28;20480;-64
2023/08/07 00:11:37;;;;;;;16.80;5.00;;;14.80;99.90;;;;;;4988886;28;20034;-64
2023/08/07 00:14:03;;;;;;;17.88;4.18;;;15.10;99.90;;;;;;4989627;28;20096;-64
2023/08/07 00:16:32;;;;;;;17.15;4.55;;;15.10;99.90;;;;;;4987627;28;20053;-64
2023/08/07 00:18:58;;;;;;;22.70;4.55;;;14.50;99.90;;;;;;4987564;28;20457;-64
2023/08/07 00:21:23;;;;;;;23.13;5.55;;;15.60;99.90;;;;;;4980291;28;20042;-64
2023/08/07 00:23:49;;;;;;;14.02;4.47;;;14.40;99.90;;;;;;4985667;28;20074;-64
2023/08/07 00:26:15;;;;;;;14.32;3.80;;;14.30;99.90;;;;;;4987760;28;20518;-64
2023/08/07 00:28:41;;;;;;;16.77;4.07;;;14.20;99.90;;;;;;4989490;28;20058;-64
2023/08/07 00:31:07;;;;;;;10.80;3.50;;;14.20;99.90;;;;;;4984212;28;20080;-64
2023/08/07 00:33:35;;;;;;;13.63;3.53;;;14.80;99.90;;;;;;4981784;28;20034;-64
2023/08/07 00:36:01;;;;;;;13.02;4.38;;;14.70;99.90;;;;;;4986988;28;20031;-64
2023/08/07 00:38:27;;;;;;;11.77;3.88;;;14.20;99.90;;;;;;4989352;28;20309;-64
2023/08/07 00:40:55;;;;;;;13.57;3.85;;;14.10;99.90;;;;;;4983595;28;20128;-64
2023/08/07 00:43:21;;;;;;;18.35;4.75;;;14.80;99.90;;;;;;4988157;28;20125;-64
2023/08/07 00:45:47;;;;;;;14.88;4.57;;;14.50;99.90;;;;;;4989703;28;20049;-64
2023/08/07 00:48:17;;;;;;;14.57;3.60;;;14.20;99.90;;;;;;4986247;28;20037;-64
2023/08/07 00:50:44;;;;;;;22.33;5.35;;;14.90;99.90;;;;;;4983888;28;20121;-64
2023/08/07 00:53:10;;;;;;;21.08;4.88;;;13.70;99.90;;;;;;4985203;28;20620;-64
2023/08/07 00:55:36;;;;;;;15.63;4.60;;;14.20;99.90;;;;;;4989898;28;20110;-64
2023/08/07 00:58:02;;;;;;;14.98;4.40;;;14.20;99.90;;;;;;4987079;28;20030;-64
2023/08/07 01:00:29;;;;;;;16.92;4.50;;;13.20;99.90;;;;;;4990164;28;20100;-64
2023/08/07 01:02:56;;;;;;;21.08;4.72;;;13.20;99.90;;;;;;4989720;28;20049;-64
2023/08/07 01:05:25;;;;;;;16.10;3.88;;;14.80;99.90;;;;;;5004339;28;20030;-64
2023/08/07 01:07:54;;;;;;;14.20;4.38;;;14.50;99.90;;;;;;4982094;28;20389;-64
2023/08/07 01:10:29;;;;;;;17.95;5.00;;;14.50;99.90;;;;;;4984657;28;20404;-64
2023/08/07 01:13:10;;;;;;;14.07;4.78;;;13.60;99.90;;;;;;4989644;28;20038;-64
2023/08/07 01:15:37;;;;;;;15.27;4.78;;;13.90;99.90;;;;;;4985545;28;20062;-64
2023/08/07 01:18:04;;;;;;;16.52;4.70;;;13.90;99.90;;;;;;4988011;28;20552;-64
2023/08/07 01:20:30;;;;;;;21.00;4.90;;;13.60;99.90;;;;;;4986987;28;20536;-64
2023/08/07 01:22:56;;;;;;;17.90;4.53;;;14.30;99.90;;;;;;4989733;28;20070;-64
2023/08/07 01:25:22;;;;;;;16.67;4.60;;;13.80;99.90;;;;;;4977431;28;20077;-64
2023/08/07 01:28:26;;;;;;;13.07;3.92;;;14.50;99.90;;;;;;4985763;28;20042;-64
2023/08/07 01:30:59;;;;;;;16.27;4.43;;;14.60;99.90;;;;;;4978948;28;20117;-64
2023/08/07 01:33:32;;;;;;;14.18;3.90;;;14.60;99.90;;;;;;4984940;28;20038;-64
2023/08/07 01:36:00;;;;;;;21.10;4.40;;;13.80;99.90;;;;;;4987158;28;20043;-64
2023/08/07 01:38:29;;;;;;;20.42;4.57;;;15.30;99.90;;;;;;4981044;28;20211;-64
2023/08/07 01:40:56;;;;;;;15.05;4.50;;;14.30;99.90;;;;;;4984290;28;20082;-64
2023/08/07 01:43:22;;;;;;;14.73;4.20;;;15.10;99.90;;;;;;4989692;28;20073;-64
2023/08/07 01:45:48;;;;;;;22.38;4.85;;;14.30;99.90;;;;;;4981603;28;20368;-64
2023/08/07 01:48:14;;;;;;;15.98;4.93;;;13.90;99.90;;;;;;4985726;28;20404;-64
2023/08/07 01:50:42;;;;;;;23.30;4.95;;;13.80;99.90;;;;;;4982152;28;20122;-64
2023/08/07 01:53:08;;;;;;;23.27;5.43;;;13.60;99.90;;;;;;4989323;28;20113;-64
2023/08/07 01:55:34;;;;;;;18.23;4.65;;;13.80;1.00;;;;;;4988671;28;20034;-64
2023/08/07 01:58:00;;;;;;;13.25;3.90;;;13.50;99.90;;;;;;4971208;28;20073;-64
2023/08/07 02:00:25;;;;;;;25.65;5.53;;;13.70;1.00;;;;;;4989083;28;20042;-64
2023/08/07 02:02:51;;;;;;;18.45;4.95;;;14.80;99.90;;;;;;4988180;28;20534;-64
2023/08/07 02:05:16;;;;;;;15.73;4.65;;;13.80;1.00;;;;;;4990453;28;20350;-64
2023/08/07 02:07:43;;;;;;;15.95;4.43;;;15.00;1.00;;;;;;4979959;28;20041;-64
2023/08/07 02:10:09;;;;;;;17.73;4.60;;;14.00;99.90;;;;;;4978708;28;20142;-63
2023/08/07 02:12:34;;;;;;;18.02;4.32;;;14.10;1.00;;;;;;4982788;28;20473;-63
2023/08/07 02:15:00;;;;;;;17.60;4.70;;;13.50;1.00;;;;;;4976509;28;20058;-64
2023/08/07 02:17:27;;;;;;;16.60;4.70;;;13.30;1.00;;;;;;4987542;28;20034;-64
2023/08/07 02:19:53;;;;;;;12.18;4.55;;;13.40;99.90;;;;;;4984321;28;20052;-64
2023/08/07 02:22:20;;;;;;;17.58;5.47;;;14.40;1.00;;;;;;4980675;28;20129;-64
2023/08/07 02:24:45;;;;;;;15.23;4.78;;;14.40;1.00;;;;;;4977755;28;20068;-64
2023/08/07 02:27:11;;;;;;;15.02;5.10;;;13.90;1.00;;;;;;4985503;28;20125;-64
2023/08/07 02:29:37;;;;;;;15.95;5.68;;;13.90;1.00;;;;;;4988995;28;20133;-64
2023/08/07 02:32:03;;;;;;;11.13;3.47;;;14.00;1.00;;;;;;4984053;28;20161;-65
2023/08/07 02:34:32;;;;;;;15.07;5.22;;;14.10;1.00;;;;;;4967314;28;20061;-64
2023/08/07 02:36:58;;;;;;;14.52;5.65;;;15.00;1.00;;;;;;4985906;28;20077;-64
2023/08/07 02:39:25;;;;;;;11.73;5.13;;;14.00;1.00;;;;;;4986116;28;20074;-64
2023/08/07 02:41:51;;;;;;;12.85;4.85;;;14.20;1.00;;;;;;4992652;28;20042;-65
2023/08/07 02:44:20;;;;;;;15.90;4.75;;;15.30;1.00;;;;;;4988520;28;20475;-64
2023/08/07 02:46:45;;;;;;;16.38;5.30;;;14.70;1.00;;;;;;4990902;28;20038;-64
2023/08/07 02:49:11;;;;;;;19.08;6.07;;;14.10;1.00;;;;;;4985282;28;20034;-64
2023/08/07 02:51:37;;;;;;;17.50;5.75;;;15.60;1.00;;;;;;4980618;28;20404;-65
2023/08/07 02:54:03;;;;;;;21.13;7.72;;;;;;;;;;4983454;28;20030;-65
2023/08/07 02:56:30;;;;;;;21.98;6.57;;;14.20;1.00;;;;;;4991562;28;20520;-64
2023/08/07 02:58:58;;;;;;;27.95;7.30;;;14.60;1.00;;;;;;4981249;28;20053;-64
2023/08/07 03:01:23;;;;;;;24.40;6.80;;;14.40;1.00;;;;;;4988664;28;20046;-64
2023/08/07 03:03:50;;;;;;;26.75;7.68;;;14.90;1.00;;;;;;4980607;28;20122;-64
2023/08/07 03:06:15;;;;;;;24.65;7.32;;;14.80;1.00;;;;;;4984855;28;20462;-64
2023/08/07 03:08:42;;;;;;;21.27;6.70;;;14.20;99.90;;;;;;4984758;28;20097;-64
2023/08/07 03:11:08;;;;;;;18.20;7.03;;;14.40;1.00;;;;;;4983557;28;20043;-64
2023/08/07 03:13:34;;;;;;;25.08;6.80;;;15.20;1.00;;;;;;4987179;28;20034;-64
2023/08/07 03:16:00;;;;;;;16.15;6.38;;;;;;;;;;4989210;28;20057;-64
2023/08/07 03:18:29;;;;;;;19.38;5.55;;;13.70;99.90;;;;;;4988068;28;20121;-64
2023/08/07 03:20:56;;;;;;;25.58;6.55;;;14.00;99.90;;;;;;4987670;28;20524;-64
2023/08/07 03:23:22;;;;;;;19.17;5.60;;;15.00;99.90;;;;;;4984277;28;20034;-64
2023/08/07 03:25:48;;;;;;;21.73;6.65;;;13.90;99.90;;;;;;4987049;28;20038;-64
2023/08/07 03:28:14;;;;;;;18.70;5.63;;;14.80;99.90;;;;;;4984584;28;20592;-64
2023/08/07 03:30:40;;;;;;;19.73;6.35;;;13.70;99.90;;;;;;4981145;28;20082;-64
2023/08/07 03:33:06;;;;;;;23.33;6.00;;;14.30;99.90;;;;;;4989324;28;20030;-64
2023/08/07 03:35:32;;;;;;;16.88;6.72;;;14.80;99.90;;;;;;4978087;28;20400;-64
2023/08/07 03:37:58;;;;;;;15.90;5.88;;;14.20;99.90;;;;;;4978189;28;20034;-64
2023/08/07 03:40:23;;;;;;;19.80;5.85;;;13.50;99.90;;;;;;4979388;28;20042;-64
2023/08/07 03:42:49;;;;;;;14.60;4.75;;;14.70;99.90;;;;;;4965967;28;20045;-64
2023/08/07 03:45:15;;;;;;;17.73;5.65;;;14.10;99.90;;;;;;4960616;28;20512;-64
2023/08/07 03:47:40;;;;;;;19.52;5.50;;;14.30;99.90;;;;;;4988082;28;20065;-64
2023/08/07 03:50:06;;;;;;;14.15;4.63;;;14.10;99.90;;;;;;4979651;28;20093;-64
2023/08/07 03:52:32;;;;;;;16.23;4.60;;;13.80;99.90;;;;;;4983926;28;20030;-64
2023/08/07 03:54:58;;;;;;;14.55;5.28;;;13.90;99.90;;;;;;4987640;28;20046;-64
2023/08/07 03:57:24;;;;;;;15.25;5.15;;;14.50;99.90;;;;;;4973964;28;20073;-64
2023/08/07 03:59:49;;;;;;;18.30;5.82;;;13.40;99.90;;;;;;4978503;28;20054;-63
2023/08/07 04:02:15;;;;;;;19.52;5.68;;;15.10;99.90;;;;;;4974206;28;20145;-64
2023/08/07 04:04:41;;;;;;;17.92;5.20;;;13.80;99.90;;;;;;4965345;28;20066;-64
2023/08/07 04:07:07;;;;;;;22.77;5.95;;;14.50;99.90;;;;;;4983790;28;20050;-64
2023/08/07 04:09:33;;;;;;;20.60;5.80;;;14.30;99.90;;;;;;4981049;28;20057;-64
2023/08/07 04:11:59;;;;;;;20.50;6.03;;;14.20;99.90;;;;;;4982495;28;20396;-64
2023/08/07 04:14:24;;;;;;;27.25;6.82;;;13.90;99.90;;;;;;4974543;28;20555;-64
2023/08/07 04:16:50;;;;;;;24.10;5.63;;;14.80;99.90;;;;;;4988006;28;20046;-64
2023/08/07 04:19:16;;;;;;;32.70;8.07;;;14.30;99.90;;;;;;4978148;28;20034;-64
2023/08/07 04:21:41;;;;;;;20.45;5.65;;;14.30;99.90;;;;;;4981098;28;20050;-64
2023/08/07 04:24:10;;;;;;;19.77;6.38;;;14.80;99.90;;;;;;4984352;28;20066;-64
2023/08/07 04:26:37;;;;;;;17.83;5.72;;;14.10;99.90;;;;;;4983377;28;20039;-64
2023/08/07 04:29:03;;;;;;;18.25;5.68;;;13.80;99.90;;;;;;4984247;28;20093;-64
2023/08/07 04:31:31;;;;;;;19.05;5.47;;;14.10;99.90;;;;;;4983107;28;20396;-64
2023/08/07 04:33:57;;;;;;;12.48;4.93;;;14.40;99.90;;;;;;4980188;28;20045;-64
2023/08/07 04:36:23;;;;;;;22.73;5.28;;;12.90;99.90;;;;;;4985089;28;20038;-64
2023/08/07 04:38:49;;;;;;;18.27;6.15;;;14.00;99.90;;;;;;4986614;28;20398;-64
2023/08/07 04:41:15;;;;;;;18.95;6.00;;;14.10;99.90;;;;;;4982659;28;20081;-64
2023/08/07 04:43:42;;;;;;;16.42;4.70;;;14.40;99.90;;;;;;4989261;28;20504;-64
2023/08/07 04:46:09;;;;;;;17.38;5.63;;;14.30;99.90;;;;;;4987490;28;20077;-64
2023/08/07 04:48:37;;;;;;;14.88;5.18;;;13.70;99.90;;;;;;4984343;28;20416;-64
2023/08/07 04:51:03;;;;;;;16.75;5.78;;;14.30;99.90;;;;;;4983651;28;20039;-64
2023/08/07 04:53:30;;;;;;;18.90;5.07;;;13.70;99.90;;;;;;4985328;28;20145;-64
2023/08/07 04:55:56;;;;;;;18.75;5.72;;;13.30;99.90;;;;;;5010721;28;20070;-64
2023/08/07 04:58:21;;;;;;;27.13;6.40;;;14.20;99.90;;;;;;4965070;28;20496;-64
2023/08/07 05:00:47;;;;;;;23.83;7.25;;;13.80;99.90;;;;;;4988335;28;20038;-64
2023/08/07 05:03:15;;;;;;;14.07;6.10;;;14.70;99.90;;;;;;4987417;28;20038;-64
2023/08/07 05:05:40;;;;;;;14.65;5.30;;;14.40;99.90;;;;;;4982572;28;20041;-64
2023/08/07 05:08:06;;;;;;;12.93;4.82;;;14.20;99.90;;;;;;4987171;28;20550;-64
2023/08/07 05:10:32;;;;;;;15.20;5.30;;;14.00;99.90;;;;;;4989229;28;20038;-64
2023/08/07 05:12:57;;;;;;;22.40;7.32;;;15.00;99.10;;;;;;4981055;28;20115;-64
2023/08/07 05:15:24;;;;;;;16.83;4.60;;;13.50;84.00;;;;;;4980092;28;20042;-64
2023/08/07 05:17:50;;;;;;;22.67;6.63;;;13.70;69.10;;;;;;4989483;28;20066;-64
2023/08/07 05:20:17;;;;;;;18.00;5.32;;;14.30;70.50;;;;;;4987171;28;20044;-64
2023/08/07 05:22:45;;;;;;;17.45;4.93;;;13.60;69.20;;;;;;4982721;28;20042;-64
2023/08/07 05:25:15;;;;;;;22.15;5.43;;;13.80;63.50;;;;;;4985077;28;20077;-64
2023/08/07 05:27:44;;;;;;;18.80;4.97;;;13.90;49.60;;;;;;4984344;28;20073;-64
2023/08/07 05:30:10;;;;;;;21.77;5.78;;;13.40;46.90;;;;;;4988132;28;20046;-64
2023/08/07 05:32:39;;;;;;;23.65;5.93;;;13.50;50.70;;;;;;4975615;28;20070;-64
2023/08/07 05:35:08;;;;;;;24.85;6.18;;;14.00;76.70;;;;;;4986683;28;20030;-64
2023/08/07 05:37:34;;;;;;;18.90;5.40;;;14.10;77.30;;;;;;4982628;28;20042;-64
2023/08/07 05:40:01;;;;;;;17.88;4.93;;;14.00;49.30;;;;;;4987168;28;20391;-64
2023/08/07 05:42:27;;;;;;;18.70;5.47;;;14.40;75.80;;;;;;4983383;28;20042;-64
2023/08/07 05:44:53;;;;;;;12.13;4.20;;;14.30;51.80;;;;;;5001047;28;20046;-64
2023/08/07 05:47:18;;;;;;;12.60;4.68;;;13.90;2.80;;;;;;4985787;28;20034;-64
2023/08/07 05:49:44;;;;;;;15.90;4.65;;;14.80;1.00;;;;;;4987520;28;20038;-64
2023/08/07 05:52:10;;;;;;;20.92;4.32;;;14.00;1.00;;;;;;4986795;28;20232;-64
2023/08/07 05:54:36;;;;;;;13.80;3.97;;;14.50;1.00;;;;;;4981330;28;20035;-64
2023/08/07 05:57:02;;;;;;;9.05;3.53;;;13.60;99.90;;;;;;4981245;28;20093;-64
2023/08/07 05:59:27;;;;;;;10.82;3.17;;;14.40;99.90;;;;;;4972125;28;20050;-64
2023/08/07 06:01:53;;;;;;;12.70;3.88;;;14.40;99.90;;;;;;4979020;28;20073;-64
2023/08/07 06:04:19;;;;;;;14.20;3.42;;;13.60;99.90;;;;;;4970268;28;20122;-64
2023/08/07 06:06:45;;;;;;;10.63;2.97;;;13.60;99.90;;;;;;4987573;28;20356;-64
2023/08/07 06:09:11;;;;;;;8.73;3.42;;;14.30;99.90;;;;;;4983639;28;20101;-64
2023/08/07 06:11:37;;;;;;;9.18;3.38;;;14.40;99.90;;;;;;4985907;28;20043;-64
2023/08/07 06:14:02;;;;;;;9.68;2.83;;;14.50;99.90;;;;;;4985050;28;20058;-64
2023/08/07 06:16:28;;;;;;;10.85;3.70;;;14.10;99.90;;;;;;4984389;28;20038;-64
2023/08/07 06:18:53;;;;;;;12.02;3.88;;;14.60;99.90;;;;;;4977960;28;20053;-64
2023/08/07 06:21:22;;;;;;;12.60;3.47;;;14.10;99.90;;;;;;4989666;28;20538;-64
2023/08/07 06:23:48;;;;;;;16.38;4.18;;;13.90;99.90;;;;;;4986457;28;20283;-64
2023/08/07 06:26:15;;;;;;;9.45;3.35;;;;;;;;;;4980595;28;20142;-64
2023/08/07 06:28:41;;;;;;;11.55;3.42;;;14.20;99.90;;;;;;4976542;28;20461;-64
2023/08/07 06:31:09;;;;;;;18.38;4.75;;;14.10;99.90;;;;;;4980455;28;20468;-64
2023/08/07 06:33:35;;;;;;;12.77;3.08;;;14.00;99.90;;;;;;4981492;28;20085;-64
2023/08/07 06:36:02;;;;;;;11.30;2.80;;;14.10;99.90;;;;;;4979734;28;20143;-64
2023/08/07 06:38:27;;;;;;;10.93;2.78;;;14.00;99.90;;;;;;4987651;28;20453;-64
2023/08/07 06:40:53;;;;;;;10.77;2.72;;;14.10;99.90;;;;;;4989040;28;20088;-64
2023/08/07 06:43:19;;;;;;;9.05;2.58;;;14.00;99.90;;;;;;4991092;28;20031;-64
2023/08/07 06:45:50;;;;;;;8.18;2.95;;;14.50;99.90;;;;;;4987687;28;20049;-64
2023/08/07 06:48:16;;;;;;;12.68;2.70;;;14.90;99.90;;;;;;4982838;28;20803;-64
2023/08/07 06:50:41;;;;;;;14.65;3.80;;;13.60;99.90;;;;;;4983575;28;20042;-64
2023/08/07 06:53:07;;;;;;;11.73;3.40;;;14.10;99.90;;;;;;4982467;28;20038;-64
2023/08/07 06:55:33;;;;;;;14.48;4.00;;;14.40;99.90;;;;;;4979529;28;20035;-64
2023/08/07 06:57:59;;;;;;;13.35;3.58;;;13.70;99.90;;;;;;4986195;28;20045;-64
2023/08/07 07:00:25;;;;;;;10.35;3.30;;;13.60;99.90;;;;;;4986624;28;20050;-64
2023/08/07 07:02:50;;;;;;;12.52;4.22;;;14.30;99.90;;;;;;4989131;28;20042;-64
2023/08/07 07:05:16;;;;;;;13.75;3.97;;;13.70;99.90;;;;;;4993038;28;20038;-64
2023/08/07 07:07:42;;;;;;;12.30;4.13;;;13.90;99.90;;;;;;4992485;28;20484;-65
2023/08/07 07:10:08;;;;;;;10.88;3.42;;;13.60;99.90;;;;;;4990781;28;20045;-65
2023/08/07 07:12:34;;;;;;;10.95;3.70;;;13.70;99.90;;;;;;4992377;28;20404;-64
2023/08/07 07:14:59;;;;;;;13.57;4.38;;;13.70;99.90;;;;;;4992484;28;20042;-64
2023/08/07 07:17:25;;;;;;;8.90;2.75;;;13.70;99.90;;;;;;4992443;28;20042;-64
2023/08/07 07:19:51;;;;;;;9.48;2.78;;;14.10;99.90;;;;;;4986818;28;20046;-65
2023/08/07 07:22:17;;;;;;;11.32;2.90;;;13.70;99.90;;;;;;4991365;28;20104;-65
2023/08/07 07:24:42;;;;;;;9.82;3.03;;;13.40;99.90;;;;;;4992423;28;20480;-65
2023/08/07 07:27:08;;;;;;;10.52;3.67;;;14.80;99.90;;;;;;4992434;28;20488;-65
2023/08/07 07:29:34;;;;;;;9.88;3.42;;;13.90;99.90;;;;;;4990392;28;20038;-65
2023/08/07 07:31:59;;;;;;;13.07;4.35;;;13.60;53.30;;;;;;4992691;28;20049;-65
2023/08/07 07:34:25;;;;;;;15.85;5.68;;;14.20;19.40;;;;;;4992795;28;20069;-65
2023/08/07 07:36:51;;;;;;;10.90;4.20;;;13.80;99.90;;;;;;4991780;28;20066;-65
2023/08/07 07:39:17;;;;;;;12.68;3.20;;;14.70;99.90;;;;;;4992019;28;20041;-65
2023/08/07 07:41:42;;;;;;;14.18;3.50;;;14.20;99.90;;;;;;4991848;28;20089;-65
2023/08/07 07:44:08;;;;;;;14.50;4.32;;;14.10;99.90;;;;;;4991771;28;20034;-65
2023/08/07 07:46:34;;;;;;;13.90;3.67;;;14.20;99.90;;;;;;4991798;28;20030;-65
2023/08/07 07:49:00;;;;;;;12.80;3.75;;;14.20;99.90;;;;;;4991491;28;20403;-65
2023/08/07 07:51:26;;;;;;;11.05;3.35;;;14.40;99.90;;;;;;4991942;28;20049;-65
2023/08/07 07:53:53;;;;;;;10.95;3.88;;;14.10;1.00;;;;;;4991478;28;20403;-65
2023/08/07 07:56:18;;;;;;;17.08;4.40;;;13.90;1.00;;;;;;4991784;28;20161;-65
2023/08/07 07:58:44;;;;;;;22.50;4.00;;;14.00;1.00;;;;;;4989668;28;20515;-65
2023/08/07 08:01:10;;;;;;;14.05;4.35;;;14.10;1.00;;;;;;4990467;28;20117;-65
2023/08/07 08:03:36;;;;;;;10.10;3.05;;;14.00;1.00;;;;;;4991693;28;20065;-65
2023/08/07 08:06:02;;;;;;;14.23;3.28;;;14.30;99.90;;;;;;4990470;28;20100;-65
2023/08/07 08:08:27;;;;;;;9.20;2.90;;;14.00;99.90;;;;;;4991234;28;20124;-65
2023/08/07 08:10:53;;;;;;;6.85;2.70;;;14.30;99.90;;;;;;5005956;28;20042;-65
2023/08/07 08:13:19;;;;;;;12.93;3.20;;;;;;;;;;4991650;28;20038;-65
2023/08/07 08:15:45;;;;;;;10.98;3.97;;;13.70;99.90;;;;;;4991358;28;20042;-65
2023/08/07 08:18:11;;;;;;;10.85;3.05;;;14.20;99.90;;;;;;4991578;28;20322;-65
2023/08/07 08:20:37;;;;;;;8.95;2.63;;;13.50;99.90;;;;;;4991001;28;20492;-65
2023/08/07 08:23:04;;;;;;;12.95;3.30;;;13.70;99.90;;;;;;4991352;28;20073;-65
2023/08/07 08:25:30;;;;;;;7.90;2.70;;;13.40;99.90;;;;;;4991528;28;20042;-65
2023/08/07 08:27:56;;;;;;;10.40;2.70;;;13.40;99.90;;;;;;4991500;28;20034;-65
2023/08/07 08:30:22;;;;;;;11.07;2.97;;;13.80;99.90;;;;;;4983159;28;20057;-65
2023/08/07 08:32:48;;;;;;;9.40;3.05;;;13.70;99.90;;;;;;4989281;28;20121;-64
2023/08/07 08:35:13;;;;;;;10.40;3.08;;;13.50;99.50;;;;;;4984750;28;20106;-65
2023/08/07 08:37:40;;;;;;;13.43;2.80;;;14.20;99.90;;;;;;4990817;28;20045;-64
2023/08/07 08:40:07;;;;;;;8.15;3.17;;;13.60;45.50;;;;;;4986882;28;20039;-65
2023/08/07 08:42:34;;;;;;;8.85;2.40;;;13.90;3.70;;;;;;4978437;28;20058;-64
2023/08/07 08:45:02;;;;;;;7.57;2.50;;;14.00;19.50;;;;;;4989537;28;20034;-65
2023/08/07 08:47:31;;;;;;;10.23;2.30;;;13.70;92.90;;;;;;4991066;28;20073;-64
2023/08/07 08:50:06;;;;;;;8.77;2.60;;;13.80;1.00;;;;;;4984567;28;20050;-65
2023/08/07 08:52:32;;;;;;;;;;;13.60;1.00;;;;;;4991270;28;20085;-64
2023/08/07 08:54:58;;;;;;;10.60;3.25;;;13.70;1.00;;;;;;4990489;28;19918;-64
2023/08/07 08:57:28;;;;;;;7.95;2.33;;;14.20;99.90;;;;;;4990886;28;20034;-64
2023/08/07 08:59:56;;;;;;;9.15;2.22;;;14.10;1.00;;;;;;4990401;28;20465;-64
2023/08/07 09:02:22;;;;;;;7.22;2.83;;;14.30;99.90;;;;;;4986603;28;20047;-64
2023/08/07 09:04:48;;;;;;;15.68;2.80;;;15.20;99.90;;;;;;4987669;28;20077;-64
2023/08/07 09:07:16;;;;;;;8.13;2.25;;;14.70;99.90;;;;;;4990761;28;20038;-64
2023/08/07 09:09:44;;;;;;;8.10;2.90;;;14.70;99.90;;;;;;4989790;28;20443;-64
2023/08/07 09:12:20;;;;;;;9.90;3.00;;;15.00;99.90;;;;;;4985040;28;20043;-64
2023/08/07 09:14:53;;;;;;;11.57;2.65;;;14.90;99.90;;;;;;4988031;28;20045;-64
2023/08/07 09:17:20;;;;;;;10.13;3.30;;;14.30;99.90;;;;;;4991064;28;20404;-64
2023/08/07 09:19:46;;;;;;;9.77;3.05;;;14.10;99.90;;;;;;4986205;28;20030;-64
2023/08/07 09:22:12;;;;;;;9.18;2.42;;;14.30;99.90;;;;;;4989205;28;20041;-64
2023/08/07 09:24:37;;;;;;;10.75;2.92;;;14.60;99.90;;;;;;4990723;28;20049;-64
2023/08/07 09:27:06;;;;;;;8.98;2.30;;;14.90;99.90;;;;;;4964777;28;20491;-64
2023/08/07 09:29:32;;;;;;;9.95;2.78;;;14.80;99.90;;;;;;4990076;28;20027;-64
2023/08/07 09:32:06;;;;;;;15.55;3.63;;;15.40;99.90;;;;;;4990406;28;20061;-64
2023/08/07 09:34:32;;;;;;;;;;;14.90;99.90;;;;;;4990804;28;20034;-64
2023/08/07 09:36:58;;;;;;;8.00;2.50;;;14.70;99.90;;;;;;4990132;28;19925;-64
2023/08/07 09:39:25;;;;;;;9.05;2.60;;;15.50;99.90;;;;;;4989315;28;20035;-64
2023/08/07 09:41:53;;;;;;;8.43;2.60;;;15.50;99.90;;;;;;4972543;28;20060;-64
2023/08/07 09:44:21;;;;;;;9.40;3.10;;;15.10;99.90;;;;;;4990038;28;20508;-64
2023/08/07 09:46:46;;;;;;;9.82;2.55;;;15.10;99.90;;;;;;4989823;28;20039;-64
2023/08/07 09:49:12;;;;;;;8.30;3.53;;;14.90;99.90;;;;;;4990514;28;20035;-64
2023/08/07 09:51:47;;;;;;;11.05;2.70;;;15.50;99.90;;;;;;4990241;28;20505;-64
2023/08/07 09:54:12;;;;;;;;;;;15.70;99.90;;;;;;4979658;28;20038;-64
2023/08/07 09:56:39;;;;;;;10.55;3.28;;;15.00;99.90;;;;;;4990523;28;19917;-64
2023/08/07 09:59:06;;;;;;;11.60;3.85;;;15.80;99.90;;;;;;4990000;28;20031;-64
2023/08/07 10:01:32;;;;;;;10.27;3.20;;;15.70;99.90;;;;;;4990323;28;20088;-64
2023/08/07 10:03:58;;;;;;;8.00;2.90;;;15.30;99.90;;;;;;4989862;28;20042;-64
2023/08/07 10:06:24;;;;;;;6.70;2.92;;;15.80;99.90;;;;;;4988986;28;20042;-64
2023/08/07 10:08:51;;;;;;;8.38;2.78;;;15.60;99.90;;;;;;4989540;28;20077;-64
2023/08/07 10:11:17;;;;;;;11.40;2.85;;;15.20;99.90;;;;;;4989708;28;20057;-64
2023/08/07 10:13:43;;;;;;;6.18;2.10;;;15.50;99.90;;;;;;4994015;28;20416;-63
2023/08/07 10:16:09;;;;;;;7.28;2.15;;;16.00;99.90;;;;;;4993784;28;20069;-64
2023/08/07 10:18:36;;;;;;;6.75;1.80;;;15.50;99.90;;;;;;4993803;28;20027;-64
2023/08/07 10:21:04;;;;;;;7.88;2.28;;;15.00;99.90;;;;;;4992150;28;20310;-64
2023/08/07 10:23:34;;;;;;;8.10;2.10;;;15.70;38.80;;;;;;4993576;28;20089;-64
2023/08/07 10:26:01;;;;;;;8.50;2.20;;;15.70;99.90;;;;;;4993293;28;20040;-64
2023/08/07 10:28:28;;;;;;;8.75;2.17;;;15.70;99.90;;;;;;4993713;28;20109;-64
2023/08/07 10:30:54;;;;;;;7.47;2.45;;;15.30;98.10;;;;;;4993239;28;20508;-64
2023/08/07 10:33:21;;;;;;;10.02;3.45;;;;;;;;;;4993615;28;20034;-64
2023/08/07 10:35:48;;;;;;;11.38;2.10;;;15.30;56.10;;;;;;4993470;28;20487;-64
2023/08/07 10:38:14;;;;;;;10.48;2.58;;;15.40;27.90;;;;;;4992867;28;20117;-64
2023/08/07 10:41:03;;;;;;;9.15;2.20;;;15.90;99.90;;;;;;4992478;28;20042;-64
2023/08/07 10:43:29;;;;;;;10.25;2.15;;;16.10;99.90;;;;;;4991968;28;20038;-64
2023/08/07 10:46:06;;;;;;;9.00;2.33;;;15.60;1.00;;;;;;4984086;28;20101;-64
2023/08/07 10:48:43;;;;;;;7.63;2.10;;;16.10;99.90;;;;;;4991070;28;20058;-64
2023/08/07 10:51:11;;;;;;;6.57;2.20;;;16.00;99.90;;;;;;4985652;28;20042;-64
2023/08/07 10:53:43;;;;;;;8.73;2.50;;;16.10;4.60;;;;;;4992637;28;20037;-64
2023/08/07 10:56:15;;;;;;;10.95;2.33;;;16.20;1.00;;;;;;4983642;28;20038;-64
2023/08/07 10:58:41;;;;;;;11.63;2.53;;;16.60;1.00;;;;;;4992105;28;20098;-64
2023/08/07 11:01:19;;;;;;;12.48;2.72;;;16.70;90.90;;;;;;4985065;28;20397;-64
2023/08/07 11:03:49;;;;;;;7.95;2.33;;;16.60;1.00;;;;;;4988841;28;20046;-64
2023/08/07 11:06:17;;;;;;;6.70;2.40;;;16.70;1.00;;;;;;4991268;28;20150;-64
2023/08/07 11:08:42;;;;;;;8.18;2.20;;;16.80;99.90;;;;;;4991406;28;20055;-64
2023/08/07 11:11:08;;;;;;;9.25;2.58;;;17.20;1.00;;;;;;4992529;28;20072;-64
2023/08/07 11:13:34;;;;;;;11.05;2.58;;;17.20;99.90;;;;;;4993150;28;20030;-64
2023/08/07 11:16:01;;;;;;;7.43;2.53;;;16.70;99.90;;;;;;4984890;28;20172;-64
2023/08/07 11:18:27;;;;;;;10.25;2.10;;;16.90;99.90;;;;;;4983240;28;20078;-64
2023/08/07 11:20:58;;;;;;;6.57;2.20;;;16.90;99.90;;;;;;4977529;28;20074;-64
2023/08/07 11:23:27;;;;;;;9.77;2.30;;;16.90;99.90;;;;;;4976989;28;20049;-64
2023/08/07 11:25:53;;;;;;;9.27;3.08;;;16.80;99.90;;;;;;4982760;28;20671;-64
2023/08/07 11:28:23;;;;;;;8.43;2.30;;;17.20;99.90;;;;;;4984877;28;20121;-64
2023/08/07 11:30:51;;;;;;;9.02;2.65;;;17.00;1.00;;;;;;4985256;28;20409;-64
2023/08/07 11:33:20;;;;;;;7.25;2.47;;;;;;;;;;4976679;28;20376;-64
2023/08/07 11:35:47;;;;;;;11.52;2.60;;;16.40;25.40;;;;;;4984054;28;20081;-64
2023/08/07 11:38:15;;;;;;;7.80;2.65;;;15.60;99.90;;;;;;4990100;28;20468;-64
2023/08/07 11:40:42;;;;;;;8.40;2.05;;;15.40;99.90;;;;;;4992590;28;20038;-64
2023/08/07 11:43:07;;;;;;;12.77;3.50;;;15.40;99.90;;;;;;4992158;28;20487;-64
2023/08/07 11:45:34;;;;;;;6.80;2.42;;;16.20;99.90;;;;;;4987659;28;20050;-64
2023/08/07 11:48:01;;;;;;;7.88;2.22;;;16.30;99.90;;;;;;4980102;28;21613;-64
2023/08/07 11:50:28;;;;;;;9.23;2.67;;;16.20;99.90;;;;;;4987806;28;20057;-64
2023/08/07 11:52:53;;;;;;;6.50;2.40;;;16.50;99.90;;;;;;4988850;28;20034;-64
2023/08/07 11:55:19;;;;;;;8.30;2.60;;;17.00;99.90;;;;;;4986935;28;20389;-64
2023/08/07 11:57:48;;;;;;;8.73;2.20;;;16.70;99.90;;;;;;4980472;28;20372;-64
2023/08/07 12:00:14;;;;;;;6.28;2.10;;;17.00;99.90;;;;;;4979094;28;20145;-64
2023/08/07 12:02:44;;;;;;;7.55;2.13;;;;;;;;;;4958517;28;20047;-64
2023/08/07 12:05:11;;;;;;;7.20;1.85;;;17.10;99.90;;;;;;4982025;28;20218;-64
2023/08/07 12:07:37;;;;;;;5.93;2.13;;;17.30;99.90;;;;;;4981116;28;20043;-63
2023/08/07 12:10:10;;;;;;;7.68;2.22;;;16.70;51.20;;;;;;4980020;28;20129;-64
2023/08/07 12:12:37;;;;;;;7.28;2.08;;;16.70;99.90;;;;;;4990532;28;20485;-64
2023/08/07 12:15:09;;;;;;;6.30;2.53;;;18.20;1.00;;;;;;4986341;28;20070;-64
2023/08/07 12:17:38;;;;;;;7.22;1.90;;;17.20;81.20;;;;;;4973170;28;20106;-64
2023/08/07 12:20:10;;;;;;;6.95;2.30;;;17.60;1.00;;;;;;4976287;28;20039;-64
2023/08/07 12:22:36;;;;;;;5.93;1.77;;;17.20;99.90;;;;;;4988805;28;20048;-64
2023/08/07 12:25:02;;;;;;;5.63;2.20;;;18.40;99.90;;;;;;4991513;28;20039;-64
2023/08/07 12:27:28;;;;;;;7.93;2.60;;;18.30;99.90;;;;;;4991322;28;20089;-64
2023/08/07 12:29:53;;;;;;;10.95;3.13;;;18.50;99.90;;;;;;4991121;28;20042;-64
2023/08/07 12:32:19;;;;;;;7.32;2.78;;;17.70;99.90;;;;;;4991135;28;20034;-64
2023/08/07 12:34:45;;;;;;;6.55;2.33;;;17.90;99.90;;;;;;4988793;28;20515;-64
2023/08/07 12:37:10;;;;;;;9.45;2.85;;;18.10;99.90;;;;;;4983582;28;20038;-64
2023/08/07 12:39:36;;;;;;;8.88;2.50;;;17.80;99.90;;;;;;4987388;28;20045;-64
2023/08/07 12:42:03;;;;;;;8.73;2.40;;;18.20;1.00;;;;;;4978523;28;20035;-64
2023/08/07 12:44:29;;;;;;;8.57;2.80;;;17.40;99.90;;;;;;4990930;28;20038;-64